Pinecreek, Minnesota
Current Conditions -  °F | °C
As of 3:34 PM on Friday 24 Oct 2014 (Local Time) from KROX Reporting Station
Clear Clear  
Wind Chill: 72°   Ceiling: Unl
Heat Index: 72°   Visibility: 10mi
Dew Point: 46°   Wind: 17mph
Humidity: 41%   Direction: 260°W
Pressure: 29.64"   Gusts: 28mph
Location:  48.7499°N, 95.6399°W
Report Text: KROX 242034Z AUTO 26015G24KT 10SM CLR 22/08 A2964 RMK AO2
Loading
Personal Weather Stations






























Interactive Weather Map
Tropical Storm Tracking
New forecast layout! Learn more

10-Day Weather Forecast

Advertisements
Track Severe Weather on mobile